createdAt,value
2023-02-18T00:00:23.813Z,100.00
2023-02-18T00:05:48.803Z,100.00
2023-02-18T00:10:53.351Z,100.00
2023-02-18T00:16:02.510Z,100.00
2023-02-18T00:21:09.671Z,100.00
2023-02-18T00:26:15.615Z,100.00
2023-02-18T00:31:22.124Z,100.00
2023-02-18T00:36:27.698Z,100.00
2023-02-18T00:41:32.619Z,100.00
2023-02-18T00:46:36.539Z,100.00
2023-02-18T00:51:41.731Z,100.00
2023-02-18T00:56:45.462Z,100.00
2023-02-18T01:01:49.204Z,100.00
2023-02-18T01:06:54.428Z,100.00
2023-02-18T01:11:58.097Z,100.00
2023-02-18T01:17:01.857Z,100.00
2023-02-18T01:22:07.536Z,100.00
2023-02-18T01:27:11.942Z,100.00
2023-02-18T01:32:15.773Z,100.00
2023-02-18T01:37:20.856Z,100.00
2023-02-18T01:42:26.417Z,100.00
2023-02-18T01:47:30.424Z,100.00
2023-02-18T01:52:35.478Z,99.96
2023-02-18T01:57:40.132Z,98.32
2023-02-18T02:02:47.292Z,91.63
2023-02-18T02:07:55.475Z,84.74
2023-02-18T02:13:06.785Z,84.48
2023-02-18T02:18:26.246Z,84.02
2023-02-18T02:24:22.798Z,83.32
2023-02-18T02:29:50.263Z,82.34
2023-02-18T02:34:59.841Z,83.15
2023-02-18T02:40:14.628Z,85.76
2023-02-18T02:45:25.713Z,87.86
2023-02-18T02:50:39.168Z,90.18
2023-02-18T02:55:42.903Z,93.10
2023-02-18T03:07:13.379Z,97.87
2023-02-18T03:12:26.679Z,91.14
2023-02-18T03:17:38.274Z,86.70
2023-02-18T03:22:48.714Z,83.98
2023-02-18T03:27:56.698Z,82.02
2023-02-18T03:33:05.322Z,82.72
2023-02-18T03:38:15.706Z,82.96
2023-02-18T03:43:19.405Z,86.12
2023-02-18T03:48:23.141Z,88.30
2023-02-18T03:53:30.558Z,90.69
2023-02-18T03:58:34.205Z,91.13
2023-02-18T04:03:37.841Z,91.78
2023-02-18T04:08:42.881Z,93.47
2023-02-18T04:13:46.584Z,94.05
2023-02-18T04:18:50.222Z,82.29
2023-02-18T04:23:55.257Z,72.59
2023-02-18T04:28:59.010Z,59.47
2023-02-18T04:34:02.724Z,58.02
2023-02-18T04:39:07.825Z,53.90
2023-02-18T04:44:11.520Z,53.60
2023-02-18T04:49:15.348Z,52.75
2023-02-18T04:54:20.410Z,53.38
2023-02-18T04:59:24.276Z,55.27
2023-02-18T05:04:28.124Z,55.85
2023-02-18T05:09:33.628Z,53.58
2023-02-18T05:14:37.430Z,53.38
2023-02-18T05:19:41.124Z,54.37
2023-02-18T05:24:46.234Z,53.51
2023-02-18T05:29:49.904Z,53.37
2023-02-18T05:34:53.566Z,53.33
2023-02-18T05:39:58.684Z,53.07
2023-02-18T05:45:02.390Z,53.24
2023-02-18T05:50:07.456Z,53.90
2023-02-18T05:55:12.651Z,52.09
2023-02-18T06:00:16.937Z,50.21
2023-02-18T06:05:20.815Z,49.77
2023-02-18T06:10:25.888Z,49.58
2023-02-18T06:15:29.608Z,49.98
2023-02-18T06:20:33.518Z,50.12
2023-02-18T06:25:38.562Z,50.62
2023-02-18T06:30:42.224Z,49.66
2023-02-18T06:35:55.315Z,48.76
2023-02-18T06:41:00.381Z,46.80
2023-02-18T06:46:04.445Z,47.47
2023-02-18T06:51:08.250Z,45.94
2023-02-18T06:56:13.652Z,46.01
2023-02-18T07:01:17.387Z,46.39
2023-02-18T07:06:21.118Z,46.46
2023-02-18T07:11:26.149Z,47.02
2023-02-18T07:16:30.008Z,47.32
2023-02-18T07:21:33.695Z,46.85
2023-02-18T07:26:38.937Z,47.32
2023-02-18T07:31:42.715Z,47.22
2023-02-18T07:36:46.769Z,46.24
2023-02-18T07:41:52.004Z,46.43
2023-02-18T07:46:55.767Z,47.05
2023-02-18T07:51:59.605Z,46.81
2023-02-18T07:57:04.853Z,46.71
2023-02-18T08:02:08.778Z,46.75
2023-02-18T08:07:14.551Z,47.11
2023-02-18T08:12:19.615Z,45.77
2023-02-18T08:17:23.364Z,45.80
2023-02-18T08:22:27.114Z,46.37
2023-02-18T08:27:33.070Z,47.00
2023-02-18T08:32:37.459Z,46.29
2023-02-18T08:37:52.751Z,46.70
2023-02-18T08:42:59.335Z,47.72
2023-02-18T08:48:18.202Z,47.49
2023-02-18T08:53:23.759Z,47.95
2023-02-18T08:58:28.915Z,49.00
2023-02-18T09:03:32.680Z,49.51
2023-02-18T09:08:36.468Z,50.32
2023-02-18T09:13:42.094Z,51.06
2023-02-18T09:18:46.094Z,51.88
2023-02-18T09:23:50.025Z,52.34
2023-02-18T09:28:56.517Z,53.24
2023-02-18T09:34:02.592Z,53.73
2023-02-18T09:39:06.778Z,54.85
2023-02-18T09:44:17.792Z,55.00
2023-02-18T09:49:25.986Z,54.95
2023-02-18T09:54:29.985Z,53.97
2023-02-18T09:59:35.274Z,53.36
2023-02-18T10:04:45.822Z,53.83
2023-02-18T10:09:52.174Z,57.05
2023-02-18T10:15:00.411Z,60.16
2023-02-18T10:20:07.957Z,64.71
2023-02-18T10:25:20.238Z,67.15
2023-02-18T10:30:33.738Z,67.10
2023-02-18T10:35:48.525Z,68.43
2023-02-18T10:41:02.186Z,70.14
2023-02-18T10:46:18.926Z,70.57
2023-02-18T10:51:25.734Z,71.33
2023-02-18T10:56:39.499Z,73.36
2023-02-18T11:01:45.278Z,77.01
2023-02-18T11:06:50.777Z,79.10
2023-02-18T11:12:08.347Z,81.40
2023-02-18T11:17:29.022Z,83.26
2023-02-18T11:22:37.137Z,84.41
2023-02-18T11:27:45.674Z,86.10
2023-02-18T11:32:57.438Z,89.68
2023-02-18T11:38:03.437Z,90.49
2023-02-18T11:43:13.269Z,95.71
2023-02-18T11:48:20.732Z,97.81
2023-02-18T11:53:29.573Z,100.00
2023-02-18T11:58:39.910Z,100.00
2023-02-18T12:03:50.606Z,100.00
2023-02-18T12:08:58.288Z,100.00
2023-02-18T12:14:02.365Z,100.00
2023-02-18T12:19:22.994Z,100.00
2023-02-18T12:24:46.641Z,100.00
2023-02-18T12:30:22.968Z,100.00
2023-02-18T12:35:43.299Z,100.00
2023-02-18T12:41:02.637Z,100.00
2023-02-18T12:46:32.362Z,100.00
2023-02-18T12:51:47.102Z,100.00
2023-02-18T12:57:05.522Z,100.00
2023-02-18T13:02:24.599Z,100.00
2023-02-18T13:07:41.404Z,100.00
2023-02-18T13:12:50.179Z,100.00
2023-02-18T13:17:58.907Z,100.00
2023-02-18T13:23:04.942Z,100.00
2023-02-18T13:28:19.252Z,100.00
2023-02-18T13:33:36.306Z,100.00
2023-02-18T13:38:59.695Z,100.00
2023-02-18T13:44:08.240Z,100.00
2023-02-18T13:49:14.228Z,100.00
2023-02-18T13:54:26.233Z,100.00
2023-02-18T13:59:36.822Z,100.00
2023-02-18T14:04:53.901Z,100.00
2023-02-18T14:10:00.368Z,100.00
2023-02-18T14:15:23.423Z,100.00
2023-02-18T14:20:56.533Z,100.00
2023-02-18T14:26:08.057Z,100.00
2023-02-18T14:31:36.864Z,100.00
2023-02-18T14:36:47.772Z,100.00
2023-02-18T14:42:01.401Z,100.00
2023-02-18T14:47:20.860Z,100.00
2023-02-18T14:52:28.702Z,100.00
2023-02-18T14:57:38.601Z,100.00
2023-02-18T15:02:42.292Z,100.00
2023-02-18T15:08:00.313Z,100.00
2023-02-18T15:13:08.790Z,100.00
2023-02-18T15:18:22.653Z,100.00
2023-02-18T15:23:26.521Z,100.00
2023-02-18T15:28:33.975Z,100.00
2023-02-18T15:33:37.781Z,100.00
2023-02-18T15:38:43.064Z,100.00
2023-02-18T15:43:56.483Z,100.00
2023-02-18T15:49:03.119Z,100.00
2023-02-18T15:54:07.026Z,100.00
2023-02-18T15:59:20.177Z,100.00
2023-02-18T16:04:26.539Z,100.00
2023-02-18T16:09:33.586Z,100.00
2023-02-18T16:14:46.729Z,100.00
2023-02-18T16:20:04.454Z,100.00
2023-02-18T16:25:17.171Z,100.00
2023-02-18T16:30:26.595Z,100.00
2023-02-18T16:35:43.879Z,100.00
2023-02-18T16:40:53.412Z,100.00
2023-02-18T16:46:01.045Z,100.00
2023-02-18T16:51:08.004Z,100.00
2023-02-18T16:56:17.745Z,100.00
2023-02-18T17:01:25.282Z,100.00
2023-02-18T17:06:32.156Z,100.00
2023-02-18T17:11:37.150Z,100.00
2023-02-18T17:16:42.310Z,100.00
2023-02-18T17:21:48.592Z,100.00
2023-02-18T17:26:52.813Z,100.00
2023-02-18T17:31:58.314Z,100.00
2023-02-18T17:37:02.039Z,100.00
2023-02-18T17:42:05.925Z,100.00
2023-02-18T17:47:11.049Z,100.00
2023-02-18T17:52:30.785Z,100.00
2023-02-18T17:57:34.296Z,100.00
2023-02-18T18:02:39.719Z,100.00
2023-02-18T18:07:43.694Z,100.00
2023-02-18T18:12:47.773Z,100.00
2023-02-18T18:17:53.818Z,100.00
2023-02-18T18:22:59.151Z,100.00
2023-02-18T18:28:06.798Z,100.00
2023-02-18T18:33:18.262Z,100.00
2023-02-18T18:38:23.466Z,100.00
2023-02-18T18:43:32.494Z,100.00
2023-02-18T18:48:38.231Z,100.00
2023-02-18T18:53:42.049Z,100.00
2023-02-18T18:58:45.816Z,100.00
2023-02-18T19:03:51.084Z,100.00
2023-02-18T19:08:54.870Z,100.00
2023-02-18T19:13:59.081Z,100.00
2023-02-18T19:19:04.407Z,100.00
2023-02-18T19:24:08.954Z,100.00
2023-02-18T19:29:12.689Z,100.00
2023-02-18T19:34:17.870Z,100.00
2023-02-18T19:39:21.711Z,100.00
2023-02-18T19:44:25.449Z,100.00
2023-02-18T19:49:30.566Z,100.00
2023-02-18T19:54:34.456Z,100.00
2023-02-18T19:59:38.410Z,100.00
2023-02-18T20:04:43.851Z,100.00
2023-02-18T20:09:47.958Z,100.00
2023-02-18T20:14:52.442Z,100.00
2023-02-18T20:19:58.070Z,100.00
2023-02-18T20:25:02.505Z,100.00
2023-02-18T20:30:07.805Z,100.00
2023-02-18T20:35:12.916Z,100.00
2023-02-18T20:40:17.128Z,100.00
2023-02-18T20:45:20.993Z,100.00
2023-02-18T20:50:26.190Z,100.00
2023-02-18T20:55:30.067Z,100.00
2023-02-18T21:00:33.828Z,100.00
2023-02-18T21:05:39.027Z,100.00
2023-02-18T21:10:45.525Z,100.00
2023-02-18T21:15:50.012Z,100.00
2023-02-18T21:20:55.554Z,100.00
2023-02-18T21:26:07.549Z,100.00
2023-02-18T21:31:17.799Z,100.00
2023-02-18T21:36:23.742Z,100.00
2023-02-18T21:41:28.573Z,100.00
2023-02-18T21:46:37.518Z,100.00
2023-02-18T21:52:00.574Z,100.00
2023-02-18T21:57:06.151Z,100.00
2023-02-18T22:02:16.296Z,100.00
2023-02-18T22:07:23.081Z,100.00
2023-02-18T22:12:27.331Z,100.00
2023-02-18T22:17:33.595Z,100.00
2023-02-18T22:22:38.745Z,100.00
2023-02-18T22:27:42.635Z,100.00
2023-02-18T22:32:46.562Z,100.00
2023-02-18T22:37:51.739Z,100.00
2023-02-18T22:42:55.540Z,100.00
2023-02-18T22:47:59.238Z,100.00
2023-02-18T22:53:04.832Z,100.00
2023-02-18T22:58:11.512Z,100.00
2023-02-18T23:03:15.188Z,100.00
2023-02-18T23:08:20.448Z,100.00
2023-02-18T23:13:24.107Z,100.00
2023-02-18T23:18:48.704Z,100.00
2023-02-18T23:23:57.366Z,100.00
2023-02-18T23:29:04.516Z,100.00
2023-02-18T23:34:13.418Z,100.00
2023-02-18T23:39:21.189Z,100.00
2023-02-18T23:44:27.134Z,100.00
2023-02-18T23:49:30.995Z,100.00
2023-02-18T23:54:36.224Z,100.00
2023-02-18T23:59:40.015Z,100.00
